Silver Shadow — C6FN6 — position and weather

sailwx.info

Track history (hours):
 
Tides and Currents Weather Stations Pressure Air Temp Water Temp Dewpoint Dewpoint Depression Visibility Wind Speed Wind Dir Waves Ship Positions

Silver Shadow

Operator: V Ships Leisure SAM

Last reported at 2016-May-04 04:27 UTC. Time now 2016-May-04 05:54 UTC.
Position N 34°39' E 135°26'.

Length 186 m; draft 6.1 m.

Type: Passenger vessel. MMSI: 308628000.

Date/timePositionNaut miles runAvg speedWind from/ knotsBaromVisibWave heightAir tempDewpointWater temp
2016-May-04 04:27N 34°39' E 135°26'0 0.0
2016-May-04 03:28N 34°39' E 135°26'0 0.0
2016-May-04 02:33N 34°39' E 135°26'0 0.0
2016-May-04 01:34N 34°39' E 135°26'0 0.0
2016-May-04 00:33N 34°39' E 135°26'1 0.6
2016-May-03 23:33N 34°39' E 135°25'1110.7
2016-May-03 22:33N 34°35' E 135°13'1211.4
2016-May-03 21:33N 34°37' E 134°59'1715.6
2016-May-03 20:29N 34°30' E 134°41'19313.8
2016-May-03 06:28N 34°02' E 130°50'1515.3
2016-May-03 05:28N 34°04' E 130°32'40715.6
2016-May-02 03:24N 36°56' E 122°59'1517.6
2016-May-02 02:33N 37°09' E 122°49'2417.0
2016-May-02 01:10N 37°32' E 122°41'1118.5
2016-May-02 00:33N 37°38' E 122°30'5518.4
2016-May-01 21:33N 38°11' E 121°34'1818.1
2016-May-01 20:33N 38°22' E 121°15'2018.0
2016-May-01 19:25N 38°33' E 120°53'1918.1
2016-May-01 18:22N 38°36' E 120°29'1718.1
2016-May-01 17:27N 38°38' E 120°08'10517.7
2016-May-01 11:31N 38°57' E 117°56'6 5.2
2016-May-01 10:22N 38°59' E 117°49'0 0.0
2016-May-01 09:16N 38°59' E 117°49'0 0.0
2016-May-01 07:22N 38°59' E 117°49'0 0.0
2016-May-01 06:04N 38°59' E 117°49'0 0.0
2016-May-01 04:04N 38°59' E 117°49'0 0.0
2016-May-01 03:10N 38°59' E 117°49'0 0.0
2016-May-01 02:28N 38°59' E 117°49'0 0.0
2016-May-01 01:28N 38°59' E 117°49'0 0.0
2016-Apr-30 12:16N 38°59' E 117°49'0 0.0
2016-Apr-30 11:28N 38°59' E 117°49'0 0.0
2016-Apr-30 10:22N 38°59' E 117°49'0 0.0
2016-Apr-30 09:22N 38°59' E 117°49'0 0.0
2016-Apr-30 07:28N 38°59' E 117°49'0 0.0
2016-Apr-30 06:16N 38°59' E 117°49'0 0.0
2016-Apr-30 04:28N 38°59' E 117°49'0 0.0
2016-Apr-30 02:22N 38°59' E 117°49'0 0.0
2016-Apr-30 01:28N 38°59' E 117°49'0 0.0
2016-Apr-30 00:28N 38°59' E 117°49'0 0.0
2016-Apr-29 22:23N 38°59' E 117°49'16612.7
2016-Apr-29 09:18N 38°26' E 121°18'7713.4
2016-Apr-29 03:33N 37°40' E 122°36'  
2016-Apr-26 11:14N 31°16' E 121°51'913.8
2016-Apr-26 10:33N 31°20' E 121°41'10 9.8
2016-Apr-26 09:33N 31°23' E 121°30'7 6.9
2016-Apr-26 08:33N 31°17' E 121°34'4 3.6
2016-Apr-26 07:26N 31°15' E 121°30'0 0.0
2016-Apr-26 06:32N 31°15' E 121°30'0 0.0
2016-Apr-26 05:29N 31°15' E 121°30'0 0.0
2016-Apr-26 04:29N 31°15' E 121°30'0 0.0
2016-Apr-26 03:32N 31°15' E 121°30'0 0.0
2016-Apr-26 02:29N 31°15' E 121°30'0 0.0
2016-Apr-26 01:32N 31°15' E 121°30'0 0.0
2016-Apr-26 00:32N 31°15' E 121°30'0 0.0
2016-Apr-25 23:32N 31°15' E 121°30'0 0.0
2016-Apr-25 22:32N 31°15' E 121°30'0 0.0
2016-Apr-25 21:32N 31°15' E 121°30'0 0.0
2016-Apr-25 20:20N 31°15' E 121°30'0 0.0
2016-Apr-25 19:29N 31°15' E 121°30'0 0.0
2016-Apr-25 18:32N 31°15' E 121°30'0 0.0
2016-Apr-25 17:32N 31°15' E 121°30'0 0.0
2016-Apr-25 16:32N 31°15' E 121°30'0 0.0
2016-Apr-25 15:29N 31°15' E 121°30'0 0.0
2016-Apr-25 14:32N 31°15' E 121°30'0 0.0
2016-Apr-25 13:29N 31°15' E 121°30'0 0.0
2016-Apr-25 12:32N 31°15' E 121°30'0 0.0
2016-Apr-25 11:32N 31°15' E 121°30'0 0.0
2016-Apr-25 10:32N 31°15' E 121°30'0 0.0
2016-Apr-25 09:32N 31°15' E 121°30'0 0.0
2016-Apr-25 07:29N 31°15' E 121°30'0 0.0
2016-Apr-25 06:32N 31°15' E 121°30'0 0.0
2016-Apr-25 05:29N 31°15' E 121°30'0 0.0
2016-Apr-25 04:32N 31°15' E 121°30'0 0.0
2016-Apr-25 03:32N 31°15' E 121°30'0 0.0
2016-Apr-25 02:32N 31°15' E 121°30'0 0.0
2016-Apr-25 01:32N 31°15' E 121°30'0 0.0
2016-Apr-25 00:32N 31°15' E 121°30'0 0.0
2016-Apr-24 23:26N 31°15' E 121°30'0 0.0
2016-Apr-24 21:32N 31°15' E 121°30'0 0.0
2016-Apr-24 20:32N 31°15' E 121°30'4 4.5
2016-Apr-24 19:32N 31°18' E 121°33'6 5.9
2016-Apr-24 18:33N 31°23' E 121°30'7 7.2
2016-Apr-24 17:32N 31°22' E 121°39'1010.2
2016-Apr-24 16:33N 31°17' E 121°49'1310.8
2016-Apr-24 15:22N 31°14' E 122°04'2212.1
2016-Apr-24 13:33N 31°07' E 122°28'1312.5
2016-Apr-24 12:33N 31°06' E 122°43'1212.1
2016-Apr-24 11:33N 30°55' E 122°49'1212.2
2016-Apr-24 10:33N 30°46' E 122°58'  
Track history (hours):
 
Tides and Currents Weather Stations Pressure Air Temp Water Temp Dewpoint Dewpoint Depression Visibility Wind Speed Wind Dir Waves Ship Positions

Silver Shadow

Operator: V Ships Leisure SAM

Last reported at 2016-May-04 04:27 UTC. Time now 2016-May-04 05:54 UTC.
Position N 34°39' E 135°26'.

Length 186 m; draft 6.1 m.

Type: Passenger vessel. MMSI: 308628000.

Date/timePositionNaut miles runAvg speedWind from/ knotsBaromVisibWave heightAir tempDewpointWater temp
2016-May-04 04:27N 34°39' E 135°26'0 0.0
2016-May-04 03:28N 34°39' E 135°26'0 0.0
2016-May-04 02:33N 34°39' E 135°26'0 0.0
2016-May-04 01:34N 34°39' E 135°26'0 0.0
2016-May-04 00:33N 34°39' E 135°26'1 0.6
2016-May-03 23:33N 34°39' E 135°25'1110.7
2016-May-03 22:33N 34°35' E 135°13'1211.4
2016-May-03 21:33N 34°37' E 134°59'1715.6
2016-May-03 20:29N 34°30' E 134°41'19313.8
2016-May-03 06:28N 34°02' E 130°50'1515.3
2016-May-03 05:28N 34°04' E 130°32'40715.6
2016-May-02 03:24N 36°56' E 122°59'1517.6
2016-May-02 02:33N 37°09' E 122°49'2417.0
2016-May-02 01:10N 37°32' E 122°41'1118.5
2016-May-02 00:33N 37°38' E 122°30'5518.4
2016-May-01 21:33N 38°11' E 121°34'1818.1
2016-May-01 20:33N 38°22' E 121°15'2018.0
2016-May-01 19:25N 38°33' E 120°53'1918.1
2016-May-01 18:22N 38°36' E 120°29'1718.1
2016-May-01 17:27N 38°38' E 120°08'10517.7
2016-May-01 11:31N 38°57' E 117°56'6 5.2
2016-May-01 10:22N 38°59' E 117°49'0 0.0
2016-May-01 09:16N 38°59' E 117°49'0 0.0
2016-May-01 07:22N 38°59' E 117°49'0 0.0
2016-May-01 06:04N 38°59' E 117°49'0 0.0
2016-May-01 04:04N 38°59' E 117°49'0 0.0
2016-May-01 03:10N 38°59' E 117°49'0 0.0
2016-May-01 02:28N 38°59' E 117°49'0 0.0
2016-May-01 01:28N 38°59' E 117°49'0 0.0
2016-Apr-30 12:16N 38°59' E 117°49'0 0.0
2016-Apr-30 11:28N 38°59' E 117°49'0 0.0
2016-Apr-30 10:22N 38°59' E 117°49'0 0.0
2016-Apr-30 09:22N 38°59' E 117°49'0 0.0
2016-Apr-30 07:28N 38°59' E 117°49'0 0.0
2016-Apr-30 06:16N 38°59' E 117°49'0 0.0
2016-Apr-30 04:28N 38°59' E 117°49'0 0.0
2016-Apr-30 02:22N 38°59' E 117°49'0 0.0
2016-Apr-30 01:28N 38°59' E 117°49'0 0.0
2016-Apr-30 00:28N 38°59' E 117°49'0 0.0
2016-Apr-29 22:23N 38°59' E 117°49'16612.7
2016-Apr-29 09:18N 38°26' E 121°18'7713.4
2016-Apr-29 03:33N 37°40' E 122°36'  
2016-Apr-26 11:14N 31°16' E 121°51'913.8
2016-Apr-26 10:33N 31°20' E 121°41'10 9.8
2016-Apr-26 09:33N 31°23' E 121°30'7 6.9
2016-Apr-26 08:33N 31°17' E 121°34'4 3.6
2016-Apr-26 07:26N 31°15' E 121°30'0 0.0
2016-Apr-26 06:32N 31°15' E 121°30'0 0.0
2016-Apr-26 05:29N 31°15' E 121°30'0 0.0
2016-Apr-26 04:29N 31°15' E 121°30'0 0.0
2016-Apr-26 03:32N 31°15' E 121°30'0 0.0
2016-Apr-26 02:29N 31°15' E 121°30'0 0.0
2016-Apr-26 01:32N 31°15' E 121°30'0 0.0
2016-Apr-26 00:32N 31°15' E 121°30'0 0.0
2016-Apr-25 23:32N 31°15' E 121°30'0 0.0
2016-Apr-25 22:32N 31°15' E 121°30'0 0.0
2016-Apr-25 21:32N 31°15' E 121°30'0 0.0
2016-Apr-25 20:20N 31°15' E 121°30'0 0.0
2016-Apr-25 19:29N 31°15' E 121°30'0 0.0
2016-Apr-25 18:32N 31°15' E 121°30'0 0.0
2016-Apr-25 17:32N 31°15' E 121°30'0 0.0
2016-Apr-25 16:32N 31°15' E 121°30'0 0.0
2016-Apr-25 15:29N 31°15' E 121°30'0 0.0
2016-Apr-25 14:32N 31°15' E 121°30'0 0.0
2016-Apr-25 13:29N 31°15' E 121°30'0 0.0
2016-Apr-25 12:32N 31°15' E 121°30'0 0.0
2016-Apr-25 11:32N 31°15' E 121°30'0 0.0
2016-Apr-25 10:32N 31°15' E 121°30'0 0.0
2016-Apr-25 09:32N 31°15' E 121°30'0 0.0
2016-Apr-25 07:29N 31°15' E 121°30'0 0.0
2016-Apr-25 06:32N 31°15' E 121°30'0 0.0
2016-Apr-25 05:29N 31°15' E 121°30'0 0.0
2016-Apr-25 04:32N 31°15' E 121°30'0 0.0
2016-Apr-25 03:32N 31°15' E 121°30'0 0.0
2016-Apr-25 02:32N 31°15' E 121°30'0 0.0
2016-Apr-25 01:32N 31°15' E 121°30'0 0.0
2016-Apr-25 00:32N 31°15' E 121°30'0 0.0
2016-Apr-24 23:26N 31°15' E 121°30'0 0.0
2016-Apr-24 21:32N 31°15' E 121°30'0 0.0
2016-Apr-24 20:32N 31°15' E 121°30'4 4.5
2016-Apr-24 19:32N 31°18' E 121°33'6 5.9
2016-Apr-24 18:33N 31°23' E 121°30'7 7.2
2016-Apr-24 17:32N 31°22' E 121°39'1010.2
2016-Apr-24 16:33N 31°17' E 121°49'1310.8
2016-Apr-24 15:22N 31°14' E 122°04'2212.1
2016-Apr-24 13:33N 31°07' E 122°28'1312.5
2016-Apr-24 12:33N 31°06' E 122°43'1212.1
2016-Apr-24 11:33N 30°55' E 122°49'1212.2
2016-Apr-24 10:33N 30°46' E 122°58'  

Dump ship's entire track history